Time;durP1;ratioP1;P1;durP2;ratioP2;P2;SDS_P1;SDS_P2;PMS_P1;PMS_P2;Temp;Humidity;BMP_temperature;BMP_pressure;BME280_temperature;BME280_humidity;BME280_pressure;Samples;Min_cycle;Max_cycle;Signal;HPM_P1;HPM_P2
2024/02/13 00:02:03;;;;;;;12.90;4.88;;;5.90;86.50;;;;;;9177155;19;20054;-69
2024/02/13 00:05:11;;;;;;;13.85;4.72;;;5.80;86.50;;;;;;9170035;19;20011;-69
2024/02/13 00:08:17;;;;;;;16.92;5.47;;;5.80;86.50;;;;;;9175208;19;20026;-69
2024/02/13 00:11:25;;;;;;;19.70;4.97;;;5.80;86.50;;;;;;9176313;19;20365;-70
2024/02/13 00:14:31;;;;;;;12.73;5.10;;;5.70;86.50;;;;;;9176403;19;20029;-70
2024/02/13 00:17:44;;;;;;;15.73;5.30;;;5.70;86.50;;;;;;9174774;19;20026;-72
2024/02/13 00:20:50;;;;;;;11.35;5.38;;;5.70;86.60;;;;;;9175641;19;20469;-70
2024/02/13 00:23:58;;;;;;;22.05;5.90;;;5.70;87.20;;;;;;9175671;19;20025;-69
2024/02/13 00:27:03;;;;;;;16.08;5.45;;;5.70;86.60;;;;;;9175932;19;20022;-69
2024/02/13 00:30:12;;;;;;;21.83;5.88;;;5.70;86.50;;;;;;9173708;19;20022;-69
2024/02/13 00:33:40;;;;;;;11.98;5.90;;;5.60;86.50;;;;;;9174876;19;20003;-69
2024/02/13 00:36:51;;;;;;;;;;;5.60;86.50;;;;;;9175979;19;20468;-69
2024/02/13 00:39:58;;;;;;;16.63;7.28;;;5.60;86.60;;;;;;9175358;19;19952;-69
2024/02/13 00:43:06;;;;;;;17.60;6.15;;;5.60;86.60;;;;;;9174132;19;20658;-69
2024/02/13 00:46:12;;;;;;;10.32;5.93;;;5.60;86.70;;;;;;9174654;19;20406;-69
2024/02/13 00:49:22;;;;;;;17.45;7.90;;;5.50;86.70;;;;;;9174078;19;20019;-69
2024/02/13 00:52:29;;;;;;;19.48;6.65;;;5.60;86.70;;;;;;9174298;19;20010;-69
2024/02/13 00:55:36;;;;;;;20.02;7.72;;;5.50;86.60;;;;;;9173882;19;20113;-69
2024/02/13 00:58:43;;;;;;;16.63;7.50;;;5.50;86.60;;;;;;9171624;19;20648;-69
2024/02/13 01:01:50;;;;;;;19.75;7.80;;;5.50;86.70;;;;;;9171567;19;20472;-69
2024/02/13 01:04:59;;;;;;;19.27;7.80;;;5.50;86.80;;;;;;9169134;19;20010;-70
2024/02/13 01:08:07;;;;;;;15.02;7.10;;;5.50;86.70;;;;;;9172924;19;20377;-69
2024/02/13 01:11:13;;;;;;;17.65;8.02;;;5.50;86.70;;;;;;9173528;19;20029;-69
2024/02/13 01:14:21;;;;;;;16.23;8.30;;;5.50;86.70;;;;;;9174078;19;20017;-69
2024/02/13 01:17:28;;;;;;;22.83;7.35;;;5.40;86.60;;;;;;9172573;19;20010;-69
2024/02/13 01:20:39;;;;;;;16.08;7.65;;;5.50;86.90;;;;;;9172423;19;20119;-69
2024/02/13 01:23:44;;;;;;;20.30;8.65;;;5.40;86.70;;;;;;9173757;19;20060;-69
2024/02/13 01:26:52;;;;;;;16.30;8.32;;;5.40;86.70;;;;;;9173361;19;20023;-69
2024/02/13 01:29:57;;;;;;;17.92;8.02;;;5.40;86.80;;;;;;9172438;19;20018;-69
2024/02/13 01:33:06;;;;;;;18.90;8.32;;;5.40;86.70;;;;;;9170928;19;20515;-69
2024/02/13 01:36:17;;;;;;;18.13;8.48;;;5.40;86.70;;;;;;9172889;19;20015;-69
2024/02/13 01:39:25;;;;;;;17.67;7.93;;;5.30;87.30;;;;;;9168664;19;20022;-69
2024/02/13 01:42:31;;;;;;;18.75;8.10;;;5.40;86.80;;;;;;9172093;19;20083;-69
2024/02/13 01:45:38;;;;;;;20.48;8.00;;;5.30;86.70;;;;;;9174330;19;20018;-69
2024/02/13 01:48:44;;;;;;;19.13;8.57;;;5.30;86.70;;;;;;9180236;19;20015;-69
2024/02/13 01:51:55;;;;;;;14.93;7.93;;;5.30;86.80;;;;;;9180715;19;20011;-69
2024/02/13 01:55:02;;;;;;;19.67;8.60;;;5.30;86.70;;;;;;9181605;19;20019;-69
2024/02/13 01:58:12;;;;;;;19.63;8.77;;;5.30;86.80;;;;;;9178963;19;20010;-69
2024/02/13 02:01:17;;;;;;;15.50;7.00;;;5.30;86.90;;;;;;9180093;19;20014;-69
2024/02/13 02:04:28;;;;;;;19.70;7.43;;;5.30;86.90;;;;;;9174644;19;20777;-69
2024/02/13 02:07:37;;;;;;;25.33;9.40;;;5.30;87.00;;;;;;9179085;19;20006;-69
2024/02/13 02:10:45;;;;;;;19.67;8.77;;;5.30;87.00;;;;;;9180231;19;20029;-69
2024/02/13 02:13:52;;;;;;;12.68;7.40;;;5.20;86.90;;;;;;9179505;19;20007;-69
2024/02/13 02:17:20;;;;;;;16.50;8.32;;;5.20;87.00;;;;;;9179031;19;20018;-69
2024/02/13 02:20:26;;;;;;;16.60;7.45;;;5.20;86.90;;;;;;9181623;19;20049;-69
2024/02/13 02:23:37;;;;;;;19.40;8.20;;;5.20;86.90;;;;;;9180538;19;20011;-69
2024/02/13 02:26:52;;;;;;;22.30;7.70;;;5.20;86.90;;;;;;9180351;19;20021;-69
2024/02/13 02:30:02;;;;;;;14.00;8.00;;;5.20;87.00;;;;;;9180307;19;20033;-69
2024/02/13 02:33:10;;;;;;;20.90;7.63;;;5.20;87.00;;;;;;9178208;19;20040;-69
2024/02/13 02:36:19;;;;;;;18.02;8.10;;;5.20;87.00;;;;;;9178663;19;20349;-69
2024/02/13 02:39:24;;;;;;;17.45;8.20;;;5.20;87.10;;;;;;9176391;19;20007;-69
2024/02/13 02:42:35;;;;;;;20.40;7.60;;;5.20;87.10;;;;;;9178460;19;20015;-69
2024/02/13 02:45:41;;;;;;;22.83;8.50;;;5.20;87.00;;;;;;9178027;19;20026;-69
2024/02/13 02:48:48;;;;;;;18.33;8.13;;;5.20;87.00;;;;;;9179282;19;20014;-69
2024/02/13 02:51:54;;;;;;;15.57;8.52;;;5.20;87.00;;;;;;9178491;19;20010;-69
2024/02/13 02:55:01;;;;;;;16.40;7.90;;;5.10;87.00;;;;;;9176508;19;20007;-69
2024/02/13 02:58:11;;;;;;;18.67;9.02;;;5.10;87.00;;;;;;9176747;19;20014;-69
2024/02/13 03:01:18;;;;;;;16.67;9.05;;;5.10;87.10;;;;;;9178868;19;20022;-69
2024/02/13 03:04:24;;;;;;;16.83;8.50;;;5.10;87.10;;;;;;9173748;19;20018;-69
2024/02/13 03:07:32;;;;;;;18.20;8.13;;;5.10;87.10;;;;;;9175361;19;20019;-69
2024/02/13 03:10:37;;;;;;;23.73;9.38;;;5.10;87.30;;;;;;9178192;19;20018;-69
2024/02/13 03:13:48;;;;;;;26.05;9.02;;;5.10;87.20;;;;;;9178624;19;20381;-69
2024/02/13 03:16:53;;;;;;;18.40;9.85;;;5.10;87.20;;;;;;9177562;19;20026;-69
2024/02/13 03:20:01;;;;;;;19.67;10.00;;;5.10;87.30;;;;;;9173603;19;20015;-69
2024/02/13 03:23:09;;;;;;;19.02;10.00;;;5.10;87.30;;;;;;9177825;19;20044;-69
2024/02/13 03:26:16;;;;;;;22.23;10.38;;;5.10;87.20;;;;;;9176329;19;20424;-69
2024/02/13 03:29:41;;;;;;;18.75;9.60;;;5.10;87.30;;;;;;9177436;19;20042;-69
2024/02/13 03:32:48;;;;;;;25.35;10.18;;;5.10;87.30;;;;;;9177547;19;20015;-69
2024/02/13 03:35:54;;;;;;;22.73;10.90;;;5.10;87.30;;;;;;9178044;19;20011;-69
2024/02/13 03:39:06;;;;;;;22.38;10.30;;;5.10;87.30;;;;;;9174685;19;20666;-69
2024/02/13 03:42:12;;;;;;;18.45;10.20;;;5.10;87.50;;;;;;9176281;19;20457;-69
2024/02/13 03:45:22;;;;;;;23.35;10.43;;;5.10;87.40;;;;;;9177391;19;20014;-69
2024/02/13 03:48:40;;;;;;;28.75;11.65;;;5.10;87.30;;;;;;9175825;19;20043;-69
2024/02/13 03:51:48;;;;;;;23.88;11.57;;;5.10;87.30;;;;;;9174446;19;20523;-69
2024/02/13 03:54:53;;;;;;;23.02;11.35;;;5.10;87.50;;;;;;9176911;19;20018;-69
2024/02/13 03:58:07;;;;;;;29.85;12.75;;;5.10;87.40;;;;;;9175627;19;20026;-69
2024/02/13 04:01:16;;;;;;;20.70;11.48;;;5.10;87.30;;;;;;9175705;19;20015;-69
2024/02/13 04:04:23;;;;;;;23.25;13.02;;;5.10;87.30;;;;;;9171315;19;20982;-69
2024/02/13 04:07:29;;;;;;;24.23;12.55;;;5.00;87.30;;;;;;9174253;19;20022;-69
2024/02/13 04:10:37;;;;;;;28.70;12.10;;;5.10;87.40;;;;;;9172266;19;20037;-68
2024/02/13 04:13:46;;;;;;;26.60;13.40;;;5.10;87.50;;;;;;9175323;19;20072;-70
2024/02/13 04:16:57;;;;;;;25.40;13.70;;;5.10;87.40;;;;;;9175079;19;20026;-70
2024/02/13 04:20:03;;;;;;;24.85;13.25;;;5.10;87.40;;;;;;9172847;19;20129;-69
2024/02/13 04:23:13;;;;;;;26.23;14.20;;;5.10;87.40;;;;;;9174501;19;20017;-69
2024/02/13 04:26:18;;;;;;;30.50;14.82;;;5.00;87.30;;;;;;9175501;19;20044;-69
2024/02/13 04:29:44;;;;;;;31.25;13.60;;;5.00;87.90;;;;;;9173434;19;20022;-69
2024/02/13 04:32:53;;;;;;;26.05;13.65;;;5.00;87.40;;;;;;9172955;19;20011;-69
2024/02/13 04:36:00;;;;;;;33.72;15.07;;;5.00;87.30;;;;;;9174098;19;20026;-69
2024/02/13 04:39:07;;;;;;;30.63;14.63;;;5.00;87.30;;;;;;9171145;19;20439;-69
2024/02/13 04:42:15;;;;;;;32.80;14.43;;;5.00;87.40;;;;;;9172979;19;20018;-70
2024/02/13 04:45:23;;;;;;;31.88;14.90;;;5.00;87.50;;;;;;9174507;19;20018;-69
2024/02/13 04:48:33;;;;;;;32.10;15.50;;;5.00;87.40;;;;;;9171774;19;20017;-69
2024/02/13 04:51:39;;;;;;;31.17;14.77;;;5.00;87.40;;;;;;9173705;19;20015;-69
2024/02/13 04:54:46;;;;;;;29.15;14.25;;;5.00;88.00;;;;;;9174818;19;20029;-69
2024/02/13 04:57:52;;;;;;;36.40;15.18;;;4.90;87.40;;;;;;9174675;19;20064;-69
2024/02/13 05:01:05;;;;;;;31.35;14.30;;;4.90;87.40;;;;;;9171650;19;20026;-69
2024/02/13 05:07:34;;;;;;;33.10;15.27;;;4.90;87.40;;;;;;9173442;19;20019;-69
2024/02/13 05:10:40;;;;;;;31.25;14.77;;;4.90;87.50;;;;;;9174371;19;20018;-68
2024/02/13 05:13:49;;;;;;;27.48;14.90;;;4.90;87.50;;;;;;9172653;19;20022;-68
2024/02/13 05:16:54;;;;;;;30.67;15.73;;;4.90;87.50;;;;;;9174372;19;20010;-69
2024/02/13 05:20:11;;;;;;;27.63;13.95;;;4.90;88.10;;;;;;9172489;19;20019;-70
2024/02/13 05:23:17;;;;;;;36.92;15.73;;;4.90;87.80;;;;;;9181967;19;20010;-68
2024/02/13 05:26:24;;;;;;;24.90;14.25;;;4.90;87.60;;;;;;9183310;19;20011;-69
2024/02/13 05:29:30;;;;;;;41.90;15.10;;;4.90;87.60;;;;;;9182272;19;20472;-68
2024/02/13 05:32:38;;;;;;;28.58;15.77;;;4.90;87.70;;;;;;9182604;19;20452;-68
2024/02/13 05:35:46;;;;;;;27.05;14.80;;;4.80;87.50;;;;;;9181650;19;20014;-69
2024/02/13 05:38:54;;;;;;;32.10;15.60;;;4.90;87.60;;;;;;9181781;19;20018;-68
2024/02/13 05:41:59;;;;;;;30.25;15.48;;;4.90;87.50;;;;;;9182271;19;20021;-69
2024/02/13 05:45:08;;;;;;;29.10;14.77;;;4.80;87.60;;;;;;9180753;19;20018;-69
2024/02/13 05:48:29;;;;;;;30.60;14.80;;;4.80;87.60;;;;;;9181017;19;20439;-69
2024/02/13 05:51:39;;;;;;;26.88;14.27;;;4.80;87.60;;;;;;9181438;19;20350;-69
2024/02/13 05:54:44;;;;;;;30.50;15.48;;;4.80;87.60;;;;;;9181050;19;20018;-69
2024/02/13 05:57:53;;;;;;;37.42;15.68;;;4.80;87.60;;;;;;9181570;19;20014;-69
2024/02/13 06:00:58;;;;;;;29.08;15.05;;;4.80;87.70;;;;;;9176766;19;20055;-69
2024/02/13 06:04:07;;;;;;;32.38;15.10;;;4.80;87.80;;;;;;9175416;19;20018;-68
2024/02/13 06:07:27;;;;;;;28.65;14.90;;;4.80;87.70;;;;;;9179501;19;20368;-69
2024/02/13 06:10:36;;;;;;;28.55;15.05;;;4.80;87.70;;;;;;9180258;19;20694;-68
2024/02/13 06:13:45;;;;;;;26.50;13.90;;;4.80;87.70;;;;;;9180281;19;20048;-69
2024/02/13 06:16:52;;;;;;;30.25;14.30;;;4.80;87.80;;;;;;9180156;19;20026;-69
2024/02/13 06:20:04;;;;;;;32.78;14.75;;;4.70;87.70;;;;;;9178579;19;20018;-69
2024/02/13 06:23:16;;;;;;;29.95;14.40;;;4.80;87.70;;;;;;9180458;19;20018;-68
2024/02/13 06:26:21;;;;;;;30.85;15.15;;;4.80;87.70;;;;;;9179516;19;20010;-69
2024/02/13 06:29:29;;;;;;;27.88;14.25;;;4.80;87.80;;;;;;9179387;19;20388;-69
2024/02/13 06:32:35;;;;;;;30.73;13.90;;;4.80;87.70;;;;;;9178875;19;20030;-69
2024/02/13 06:35:43;;;;;;;30.58;15.38;;;4.70;87.70;;;;;;9178897;19;20015;-69
2024/02/13 06:38:59;;;;;;;26.08;13.13;;;4.70;87.70;;;;;;9178970;19;20022;-69
2024/02/13 06:42:08;;;;;;;30.27;14.02;;;4.70;87.70;;;;;;9177378;19;20025;-70
2024/02/13 06:45:13;;;;;;;24.85;13.70;;;4.70;87.70;;;;;;9178832;19;20034;-69
2024/02/13 06:48:21;;;;;;;32.72;15.23;;;4.70;87.80;;;;;;9179419;19;20029;-69
2024/02/13 06:51:28;;;;;;;27.90;14.00;;;4.70;87.80;;;;;;9179482;19;20101;-69
2024/02/13 06:54:39;;;;;;;29.38;14.15;;;4.70;87.80;;;;;;9176714;19;20015;-69
2024/02/13 06:57:45;;;;;;;23.40;13.68;;;4.70;87.80;;;;;;9178702;19;20392;-69
2024/02/13 07:00:53;;;;;;;22.98;13.30;;;4.70;87.80;;;;;;9177095;19;20014;-69
2024/02/13 07:03:58;;;;;;;24.73;12.95;;;4.70;87.80;;;;;;9173910;19;20021;-69
2024/02/13 07:07:06;;;;;;;27.50;13.52;;;4.70;87.80;;;;;;9177292;19;20022;-69
2024/02/13 07:10:34;;;;;;;29.40;14.10;;;4.70;87.90;;;;;;9175954;19;20022;-69
2024/02/13 07:13:54;;;;;;;32.00;13.10;;;4.70;87.90;;;;;;9176999;19;20483;-69
2024/02/13 07:17:01;;;;;;;28.77;13.10;;;4.80;87.90;;;;;;9178596;19;20015;-69
2024/02/13 07:20:10;;;;;;;23.70;12.43;;;4.70;87.90;;;;;;9177140;19;20002;-69
2024/02/13 07:23:16;;;;;;;27.75;13.85;;;4.70;87.90;;;;;;9178468;19;20018;-69
2024/02/13 07:26:26;;;;;;;29.33;12.55;;;4.70;88.10;;;;;;9177256;19;20014;-69
2024/02/13 07:29:32;;;;;;;28.73;12.68;;;4.70;88.00;;;;;;9176091;19;20085;-70
2024/02/13 07:32:40;;;;;;;22.83;11.68;;;4.70;88.00;;;;;;9177400;19;20030;-70
2024/02/13 07:35:46;;;;;;;24.50;12.15;;;4.70;88.00;;;;;;9173626;19;20364;-70
2024/02/13 07:38:56;;;;;;;21.73;12.02;;;4.70;88.10;;;;;;9175199;19;20015;-69
2024/02/13 07:42:04;;;;;;;29.88;12.25;;;4.70;88.10;;;;;;9173666;19;20010;-69
2024/02/13 07:45:12;;;;;;;29.67;12.73;;;4.80;88.20;;;;;;9173524;19;20021;-70
2024/02/13 07:48:35;;;;;;;29.13;12.55;;;4.80;88.20;;;;;;9175382;19;20835;-69
2024/02/13 07:51:43;;;;;;;23.73;12.93;;;4.80;88.20;;;;;;9176900;19;20010;-70
2024/02/13 07:54:50;;;;;;;21.42;12.23;;;4.40;88.10;;;;;;9177257;19;20484;-69
2024/02/13 07:58:01;;;;;;;32.38;12.52;;;4.80;88.20;;;;;;9176090;19;20025;-70
2024/02/13 08:01:09;;;;;;;28.00;13.63;;;4.80;88.30;;;;;;9175945;19;20022;-69
2024/02/13 08:04:19;;;;;;;29.00;12.20;;;4.90;88.50;;;;;;9172519;19;20014;-70
2024/02/13 08:07:27;;;;;;;28.95;12.07;;;4.90;88.30;;;;;;9175420;19;20094;-69
2024/02/13 08:10:36;;;;;;;24.88;11.48;;;4.90;88.40;;;;;;9176593;19;20663;-69
2024/02/13 08:13:44;;;;;;;19.80;10.57;;;4.90;88.50;;;;;;9176029;19;20010;-69
2024/02/13 08:16:51;;;;;;;30.60;12.95;;;4.90;88.50;;;;;;9173607;19;20015;-69
2024/02/13 08:19:59;;;;;;;24.88;11.55;;;5.00;88.50;;;;;;9175393;19;20033;-69
2024/02/13 08:23:07;;;;;;;29.88;12.45;;;5.00;88.60;;;;;;9173640;19;20029;-69
2024/02/13 08:26:12;;;;;;;35.97;12.25;;;5.10;88.70;;;;;;9174838;19;20112;-70
2024/02/13 08:29:22;;;;;;;33.83;11.70;;;5.10;88.80;;;;;;9171954;19;20026;-70
2024/02/13 08:32:28;;;;;;;22.65;10.40;;;5.10;88.70;;;;;;9173814;19;20408;-70
2024/02/13 08:35:36;;;;;;;31.48;11.40;;;5.20;88.80;;;;;;9174020;19;20019;-70
2024/02/13 08:38:44;;;;;;;23.05;10.90;;;5.20;88.70;;;;;;9173249;19;20017;-72
2024/02/13 08:41:52;;;;;;;22.35;11.15;;;5.30;88.70;;;;;;9171249;19;20022;-68
2024/02/13 08:45:00;;;;;;;22.90;10.65;;;5.30;88.70;;;;;;9171281;19;20022;-71
2024/02/13 08:48:10;;;;;;;15.23;7.82;;;5.30;88.70;;;;;;9172318;19;20021;-71
2024/02/13 08:51:16;;;;;;;31.05;10.52;;;5.40;88.80;;;;;;9173391;19;20022;-71
2024/02/13 08:54:24;;;;;;;35.20;11.40;;;5.40;88.70;;;;;;9175276;19;20022;-70
2024/02/13 08:57:30;;;;;;;21.20;10.18;;;5.40;88.70;;;;;;9182142;19;20014;-69
2024/02/13 09:00:40;;;;;;;22.23;10.48;;;5.40;88.80;;;;;;9179176;19;20025;-69
2024/02/13 09:03:51;;;;;;;28.08;10.82;;;5.50;88.90;;;;;;9181059;19;20015;-68
2024/02/13 09:06:59;;;;;;;23.00;9.98;;;5.70;89.20;;;;;;9178926;19;20037;-71
2024/02/13 09:10:05;;;;;;;31.02;11.27;;;5.70;89.20;;;;;;9181805;19;20501;-70
2024/02/13 09:13:13;;;;;;;26.27;12.52;;;5.80;89.30;;;;;;9183871;19;20025;-68
2024/02/13 09:16:22;;;;;;;27.15;12.75;;;5.90;89.40;;;;;;9182447;19;20091;-69
2024/02/13 09:19:29;;;;;;;20.95;10.85;;;5.90;89.40;;;;;;9184663;19;20029;-68
2024/02/13 09:22:36;;;;;;;22.58;11.15;;;6.10;89.50;;;;;;9180610;19;20022;-69
2024/02/13 09:25:49;;;;;;;21.15;10.38;;;6.20;89.60;;;;;;9182608;19;20377;-68
2024/02/13 09:28:54;;;;;;;22.20;10.65;;;6.30;89.80;;;;;;9178678;19;20010;-68
2024/02/13 09:32:04;;;;;;;23.13;10.52;;;6.50;89.90;;;;;;9173976;19;20368;-68
2024/02/13 09:35:10;;;;;;;25.00;9.63;;;6.50;89.80;;;;;;9179090;19;20031;-68
2024/02/13 09:38:29;;;;;;;18.67;9.13;;;6.60;89.80;;;;;;9179666;19;20022;-68
2024/02/13 09:41:35;;;;;;;19.48;8.70;;;6.70;89.80;;;;;;9180294;19;20010;-68
2024/02/13 09:44:42;;;;;;;20.08;8.07;;;6.80;89.80;;;;;;9176762;19;20527;-70
2024/02/13 09:47:52;;;;;;;19.42;7.72;;;6.90;89.60;;;;;;9179966;19;20098;-68
2024/02/13 09:51:03;;;;;;;21.52;7.55;;;6.90;89.50;;;;;;9178095;19;20050;-67
2024/02/13 09:54:11;;;;;;;18.38;6.97;;;7.00;89.50;;;;;;9179311;19;20122;-70
2024/02/13 09:57:18;;;;;;;12.60;6.38;;;7.20;89.60;;;;;;9178869;19;20015;-68
2024/02/13 10:00:25;;;;;;;15.77;7.65;;;7.20;89.50;;;;;;9178657;19;20779;-71
2024/02/13 10:03:35;;;;;;;11.45;6.15;;;7.30;89.50;;;;;;9174248;19;20029;-69
2024/02/13 10:06:40;;;;;;;18.08;6.75;;;7.40;89.50;;;;;;9171764;19;20018;-68
2024/02/13 10:09:50;;;;;;;17.73;6.88;;;7.50;89.50;;;;;;9179190;19;20015;-69
2024/02/13 10:12:59;;;;;;;16.98;6.82;;;7.50;90.00;;;;;;9179935;19;20377;-70
2024/02/13 10:16:08;;;;;;;15.38;6.03;;;7.70;89.60;;;;;;9179177;19;20022;-69
2024/02/13 10:19:20;;;;;;;15.50;7.45;;;7.80;89.50;;;;;;9182240;19;20021;-69
2024/02/13 10:22:28;;;;;;;19.30;5.28;;;8.00;89.60;;;;;;9178909;19;20018;-68
2024/02/13 10:25:34;;;;;;;12.27;5.60;;;8.00;89.50;;;;;;9178206;19;20018;-68
2024/02/13 10:28:44;;;;;;;10.43;5.00;;;8.20;89.30;;;;;;9179785;19;20014;-69
2024/02/13 10:31:50;;;;;;;12.95;4.75;;;8.20;89.20;;;;;;9177071;19;20447;-69
2024/02/13 10:35:04;;;;;;;11.70;4.82;;;8.30;89.10;;;;;;9179662;19;20022;-69
2024/02/13 10:38:15;;;;;;;14.60;5.07;;;8.40;89.00;;;;;;9178797;19;20022;-69
2024/02/13 10:41:26;;;;;;;15.35;4.65;;;8.60;89.10;;;;;;9175854;19;20018;-69
2024/02/13 10:44:38;;;;;;;16.35;4.95;;;8.60;88.90;;;;;;9179536;19;20483;-73
2024/02/13 10:47:54;;;;;;;18.42;5.72;;;8.70;89.00;;;;;;9177960;19;20014;-73
2024/02/13 10:51:05;;;;;;;17.17;5.20;;;8.80;88.90;;;;;;9179700;19;20805;-72
2024/02/13 10:54:15;;;;;;;9.37;4.03;;;9.10;89.00;;;;;;9176047;19;20010;-72
2024/02/13 10:57:23;;;;;;;13.05;4.15;;;9.10;89.10;;;;;;9178271;19;20063;-71
2024/02/13 11:00:31;;;;;;;16.00;3.90;;;9.30;88.90;;;;;;9179441;19;20019;-71
2024/02/13 11:03:39;;;;;;;17.30;5.10;;;9.40;88.80;;;;;;9176849;19;20029;-71
2024/02/13 11:06:49;;;;;;;10.43;3.88;;;9.40;88.60;;;;;;9173526;19;20015;-72
2024/02/13 11:09:56;;;;;;;9.55;4.63;;;9.50;88.50;;;;;;9179197;19;20018;-71
2024/02/13 11:13:09;;;;;;;18.17;4.65;;;9.70;88.40;;;;;;9177630;19;20025;-71
2024/02/13 11:16:15;;;;;;;19.77;4.35;;;9.70;88.20;;;;;;9177295;19;20018;-72
2024/02/13 11:19:45;;;;;;;8.88;3.67;;;9.80;88.10;;;;;;9175201;19;20011;-72
2024/02/13 11:22:59;;;;;;;11.25;4.47;;;9.80;88.20;;;;;;9174385;19;20048;-71
2024/02/13 11:26:07;;;;;;;15.77;3.97;;;10.00;88.00;;;;;;9175557;19;20362;-72
2024/02/13 11:29:13;;;;;;;16.02;3.85;;;10.00;87.90;;;;;;9176629;19;20021;-72
2024/02/13 11:32:28;;;;;;;12.30;3.20;;;10.00;87.90;;;;;;9175232;19;20014;-69
2024/02/13 11:35:35;;;;;;;15.27;4.07;;;10.20;87.70;;;;;;9173331;19;20022;-70
2024/02/13 11:38:54;;;;;;;13.38;3.70;;;10.10;87.50;;;;;;9173875;19;20018;-69
2024/02/13 11:42:01;;;;;;;10.50;4.10;;;9.90;87.20;;;;;;9177336;19;20029;-68
2024/02/13 11:45:10;;;;;;;14.75;3.92;;;10.20;87.40;;;;;;9175206;19;20026;-69
2024/02/13 11:48:26;;;;;;;16.63;4.03;;;10.20;87.20;;;;;;9177036;19;20067;-67
2024/02/13 11:51:41;;;;;;;10.25;3.53;;;10.20;87.30;;;;;;9176589;19;20010;-67
2024/02/13 11:54:50;;;;;;;13.40;3.92;;;10.30;88.00;;;;;;9175061;19;20029;-67
2024/02/13 11:57:59;;;;;;;14.60;3.25;;;10.30;87.10;;;;;;9173706;19;20476;-68
2024/02/13 12:01:06;;;;;;;17.13;3.65;;;10.30;87.00;;;;;;9177151;19;20019;-67
2024/02/13 12:04:29;;;;;;;12.65;4.57;;;10.40;86.90;;;;;;9165047;19;20022;-68
2024/02/13 12:07:36;;;;;;;9.93;3.08;;;10.40;87.00;;;;;;9171430;19;20392;-67
2024/02/13 12:10:46;;;;;;;14.90;4.15;;;10.40;86.80;;;;;;9174864;19;20017;-67
2024/02/13 12:13:54;;;;;;;16.15;3.53;;;10.50;86.80;;;;;;9171770;19;20023;-67
2024/02/13 12:17:06;;;;;;;7.05;3.15;;;10.40;86.70;;;;;;9174757;19;20010;-69
2024/02/13 12:20:18;;;;;;;12.10;3.83;;;10.40;86.50;;;;;;9175101;19;20014;-69
2024/02/13 12:23:27;;;;;;;17.80;3.25;;;10.40;86.50;;;;;;9174086;19;20025;-68
2024/02/13 12:26:37;;;;;;;11.32;3.33;;;10.40;86.30;;;;;;9166302;19;20018;-68
2024/02/13 12:29:47;;;;;;;9.88;2.95;;;10.40;86.20;;;;;;9174272;19;20496;-67
2024/02/13 12:32:54;;;;;;;13.75;4.85;;;10.40;86.30;;;;;;9174915;19;20476;-68
2024/02/13 12:36:05;;;;;;;18.73;4.47;;;10.30;86.10;;;;;;9174846;19;20033;-68
2024/02/13 12:39:16;;;;;;;11.73;3.72;;;10.40;86.40;;;;;;9171390;19;20019;-68
2024/02/13 12:42:28;;;;;;;9.98;3.17;;;10.30;86.30;;;;;;9173828;19;20022;-67
2024/02/13 12:45:41;;;;;;;15.32;5.30;;;10.30;86.20;;;;;;9172625;19;20026;-68
2024/02/13 12:48:51;;;;;;;16.92;3.38;;;10.30;86.30;;;;;;9174692;19;20018;-68
2024/02/13 12:51:57;;;;;;;14.68;3.38;;;10.30;86.20;;;;;;9173754;19;20014;-67
2024/02/13 12:55:09;;;;;;;8.50;3.25;;;10.30;86.10;;;;;;9174797;19;20102;-68
2024/02/13 12:58:21;;;;;;;13.43;3.95;;;10.30;86.10;;;;;;9174397;19;20018;-67
2024/02/13 13:01:30;;;;;;;15.73;3.75;;;10.30;86.00;;;;;;9173235;19;20022;-67
2024/02/13 13:04:36;;;;;;;11.68;2.92;;;10.30;86.00;;;;;;9172473;19;20018;-68
2024/02/13 13:07:49;;;;;;;16.83;3.85;;;10.30;85.90;;;;;;9173337;19;20035;-67
2024/02/13 13:10:55;;;;;;;12.27;3.53;;;10.30;85.90;;;;;;9173514;19;20021;-68
2024/02/13 13:14:06;;;;;;;5.43;2.58;;;10.30;85.80;;;;;;9157087;19;20018;-68
2024/02/13 13:17:11;;;;;;;10.10;2.60;;;10.30;85.70;;;;;;9172889;19;20345;-68
2024/02/13 13:20:23;;;;;;;15.05;3.00;;;10.30;85.80;;;;;;9169938;19;20368;-71
2024/02/13 13:23:30;;;;;;;9.23;2.50;;;10.30;85.90;;;;;;9169685;19;20018;-68
2024/02/13 13:26:41;;;;;;;10.77;2.75;;;10.30;85.80;;;;;;9168934;19;20026;-67
2024/02/13 13:29:49;;;;;;;13.43;3.75;;;10.30;86.00;;;;;;9173960;19;20018;-68
2024/02/13 13:32:58;;;;;;;10.75;3.30;;;10.30;85.80;;;;;;9174016;19;20018;-68
2024/02/13 13:36:05;;;;;;;15.77;3.75;;;10.40;85.90;;;;;;9173019;19;20135;-68
2024/02/13 13:39:13;;;;;;;10.05;2.70;;;10.30;85.80;;;;;;9173133;19;20481;-68
2024/02/13 13:42:20;;;;;;;12.88;2.50;;;10.30;85.70;;;;;;9177633;19;20018;-68
2024/02/13 13:45:30;;;;;;;12.80;2.88;;;10.30;85.70;;;;;;9179586;19;20010;-68
2024/02/13 13:48:36;;;;;;;11.40;3.53;;;10.40;85.70;;;;;;9182086;19;20014;-68
2024/02/13 13:51:44;;;;;;;5.57;2.88;;;10.40;85.70;;;;;;9181916;19;20058;-68
2024/02/13 13:54:50;;;;;;;10.23;2.85;;;10.40;85.70;;;;;;9183093;19;20034;-68
2024/02/13 13:57:57;;;;;;;11.38;3.17;;;10.40;85.60;;;;;;9182149;19;20022;-68
2024/02/13 14:01:06;;;;;;;9.95;3.20;;;10.40;85.50;;;;;;9183150;19;20010;-67
2024/02/13 14:04:15;;;;;;;14.63;2.53;;;10.50;85.50;;;;;;9182714;19;20018;-67
2024/02/13 14:07:21;;;;;;;12.68;3.15;;;10.50;85.50;;;;;;9180086;19;20269;-68
2024/02/13 14:10:29;;;;;;;11.57;2.38;;;10.50;85.20;;;;;;9175967;19;20007;-68
2024/02/13 14:13:34;;;;;;;9.77;4.07;;;10.50;85.10;;;;;;9180915;19;20092;-67
2024/02/13 14:16:44;;;;;;;9.55;2.25;;;10.50;85.10;;;;;;9180784;19;20015;-67
2024/02/13 14:19:50;;;;;;;8.02;2.38;;;10.50;85.00;;;;;;9181286;19;20014;-67
2024/02/13 14:22:59;;;;;;;7.18;2.53;;;10.60;85.00;;;;;;9180930;19;20022;-67
2024/02/13 14:26:05;;;;;;;4.90;2.28;;;10.60;85.00;;;;;;9171710;19;20030;-71
2024/02/13 14:29:13;;;;;;;6.57;2.47;;;10.60;84.90;;;;;;9180338;19;20015;-67
2024/02/13 14:32:21;;;;;;;10.45;2.17;;;10.60;84.90;;;;;;9180709;19;20018;-67
2024/02/13 14:35:29;;;;;;;6.45;1.85;;;10.60;84.80;;;;;;9177012;19;20480;-67
2024/02/13 14:38:42;;;;;;;7.85;3.10;;;10.60;84.80;;;;;;9179393;19;20060;-67
2024/02/13 14:41:53;;;;;;;5.90;2.00;;;10.70;84.70;;;;;;9179297;19;20017;-67
2024/02/13 14:45:00;;;;;;;11.23;2.20;;;10.70;84.50;;;;;;9178568;19;20028;-67
2024/02/13 14:48:12;;;;;;;9.38;2.08;;;10.70;84.40;;;;;;9177775;19;20018;-68
2024/02/13 14:51:19;;;;;;;5.72;1.67;;;10.70;84.40;;;;;;9176167;19;20014;-67
2024/02/13 14:54:27;;;;;;;4.68;1.70;;;10.70;84.40;;;;;;9175860;19;20013;-68
2024/02/13 14:57:33;;;;;;;6.10;1.80;;;10.70;84.10;;;;;;9174711;19;20014;-68
2024/02/13 15:00:42;;;;;;;4.15;1.80;;;10.70;84.10;;;;;;9176450;19;20014;-68
2024/02/13 15:03:54;;;;;;;5.97;1.80;;;10.70;84.00;;;;;;9176862;19;20019;-67
2024/02/13 15:07:02;;;;;;;8.93;2.13;;;10.70;83.90;;;;;;9172524;19;20017;-67
2024/02/13 15:10:11;;;;;;;6.95;1.65;;;10.70;83.90;;;;;;9176791;19;20023;-67
2024/02/13 15:13:20;;;;;;;9.90;2.28;;;10.70;84.40;;;;;;9174652;19;20022;-68
2024/02/13 15:16:27;;;;;;;5.07;2.35;;;10.70;83.80;;;;;;9175174;19;20781;-67
2024/02/13 15:19:40;;;;;;;4.70;1.67;;;10.70;83.70;;;;;;9172117;19;20022;-68
2024/02/13 15:22:46;;;;;;;11.57;2.53;;;10.70;83.60;;;;;;9171595;19;20011;-67
2024/02/13 15:25:54;;;;;;;9.38;2.00;;;10.60;83.60;;;;;;9169546;19;20575;-68
2024/02/13 15:28:59;;;;;;;9.55;2.20;;;10.60;83.60;;;;;;9172663;19;20381;-67
2024/02/13 15:32:07;;;;;;;7.97;2.00;;;10.60;83.50;;;;;;9172575;19;20015;-67
2024/02/13 15:35:18;;;;;;;8.73;2.20;;;10.60;83.50;;;;;;9177505;19;20018;-67
2024/02/13 15:48:31;;;;;;;10.13;2.03;;;10.50;83.30;;;;;;9174442;19;20023;-66
2024/02/13 15:51:43;;;;;;;7.82;1.75;;;10.50;83.30;;;;;;9175219;19;20025;-67
2024/02/13 15:54:50;;;;;;;8.30;1.95;;;10.50;83.10;;;;;;9177080;19;20014;-67
2024/02/13 15:57:58;;;;;;;9.27;2.17;;;10.40;83.00;;;;;;9176863;19;20010;-67
2024/02/13 16:01:03;;;;;;;7.68;2.05;;;10.50;83.20;;;;;;9176126;19;20032;-67
2024/02/13 16:04:11;;;;;;;5.18;1.67;;;10.40;83.00;;;;;;9173420;19;20028;-67
2024/02/13 16:07:20;;;;;;;9.60;1.70;;;10.40;82.90;;;;;;9172450;19;20038;-68
2024/02/13 16:10:29;;;;;;;6.13;1.90;;;10.40;83.50;;;;;;9175944;19;20018;-67
2024/02/13 16:13:34;;;;;;;8.52;2.00;;;10.40;82.90;;;;;;9173375;19;20135;-67
2024/02/13 16:16:42;;;;;;;5.00;1.60;;;10.40;82.90;;;;;;9171683;19;20014;-67
2024/02/13 16:19:48;;;;;;;11.40;3.45;;;10.40;82.90;;;;;;9175409;19;20023;-67
2024/02/13 16:22:58;;;;;;;6.07;2.40;;;10.40;82.90;;;;;;9175944;19;20018;-69
2024/02/13 16:26:04;;;;;;;5.82;1.50;;;10.40;82.80;;;;;;9168198;19;20030;-68
2024/02/13 16:29:11;;;;;;;10.35;1.90;;;10.30;82.70;;;;;;9174769;19;20011;-68
2024/02/13 16:32:19;;;;;;;6.60;1.75;;;10.30;82.80;;;;;;9174075;19;20023;-67